sensor_id;sensor_type;location;lat;lon;timestamp;pressure;altitude;pressure_sealevel;temperature;humidity
49104;BME280;34915;52.926;11.116;2023-05-25T00:00:11;102317.56;;;10.10;100.00
49104;BME280;34915;52.926;11.116;2023-05-25T00:02:37;102339.53;;;10.12;100.00
49104;BME280;34915;52.926;11.116;2023-05-25T00:05:04;102333.44;;;10.10;100.00
49104;BME280;34915;52.926;11.116;2023-05-25T00:07:30;102331.84;;;10.06;100.00
49104;BME280;34915;52.926;11.116;2023-05-25T00:09:58;102339.28;;;9.98;100.00
49104;BME280;34915;52.926;11.116;2023-05-25T00:12:24;102348.16;;;9.97;100.00
49104;BME280;34915;52.926;11.116;2023-05-25T00:14:49;102335.94;;;9.93;100.00
49104;BME280;34915;52.926;11.116;2023-05-25T00:17:15;102345.72;;;9.91;100.00
49104;BME280;34915;52.926;11.116;2023-05-25T00:19:43;102338.06;;;9.85;100.00
49104;BME280;34915;52.926;11.116;2023-05-25T00:22:11;102350.50;;;9.83;100.00
49104;BME280;34915;52.926;11.116;2023-05-25T00:24:38;102337.09;;;9.67;100.00
49104;BME280;34915;52.926;11.116;2023-05-25T00:27:04;102349.81;;;9.79;100.00
49104;BME280;34915;52.926;11.116;2023-05-25T00:29:31;102347.03;;;9.81;100.00
49104;BME280;34915;52.926;11.116;2023-05-25T00:31:56;102336.31;;;9.84;100.00
49104;BME280;34915;52.926;11.116;2023-05-25T00:34:22;102329.31;;;9.83;100.00
49104;BME280;34915;52.926;11.116;2023-05-25T00:36:48;102341.69;;;9.83;100.00
49104;BME280;34915;52.926;11.116;2023-05-25T00:39:14;102336.59;;;9.79;100.00
49104;BME280;34915;52.926;11.116;2023-05-25T00:41:45;102330.97;;;9.66;100.00
49104;BME280;34915;52.926;11.116;2023-05-25T00:44:11;102335.63;;;9.60;100.00
49104;BME280;34915;52.926;11.116;2023-05-25T00:46:48;102346.47;;;9.54;100.00
49104;BME280;34915;52.926;11.116;2023-05-25T00:49:17;102350.53;;;9.41;100.00
49104;BME280;34915;52.926;11.116;2023-05-25T00:51:43;102329.00;;;9.07;100.00
49104;BME280;34915;52.926;11.116;2023-05-25T00:54:13;102342.69;;;9.18;100.00
49104;BME280;34915;52.926;11.116;2023-05-25T00:56:49;102347.97;;;9.18;100.00
49104;BME280;34915;52.926;11.116;2023-05-25T01:02:09;102337.63;;;9.12;100.00
49104;BME280;34915;52.926;11.116;2023-05-25T01:04:42;102346.22;;;9.17;100.00
49104;BME280;34915;52.926;11.116;2023-05-25T01:07:10;102331.97;;;9.21;100.00
49104;BME280;34915;52.926;11.116;2023-05-25T01:09:45;102337.25;;;9.21;100.00
49104;BME280;34915;52.926;11.116;2023-05-25T01:12:14;102344.38;;;9.19;100.00
49104;BME280;34915;52.926;11.116;2023-05-25T01:14:40;102340.16;;;9.15;100.00
49104;BME280;34915;52.926;11.116;2023-05-25T01:17:09;102336.75;;;9.12;100.00
49104;BME280;34915;52.926;11.116;2023-05-25T01:19:35;102344.88;;;9.07;100.00
49104;BME280;34915;52.926;11.116;2023-05-25T01:24:48;102359.59;;;8.91;100.00
49104;BME280;34915;52.926;11.116;2023-05-25T01:27:22;102348.78;;;8.97;100.00
49104;BME280;34915;52.926;11.116;2023-05-25T01:29:49;102350.41;;;9.01;100.00
49104;BME280;34915;52.926;11.116;2023-05-25T01:32:17;102334.16;;;9.10;100.00
49104;BME280;34915;52.926;11.116;2023-05-25T01:34:44;102340.56;;;9.26;100.00
49104;BME280;34915;52.926;11.116;2023-05-25T01:37:10;102345.38;;;9.38;100.00
49104;BME280;34915;52.926;11.116;2023-05-25T01:39:42;102346.13;;;9.41;100.00
49104;BME280;34915;52.926;11.116;2023-05-25T01:42:08;102352.25;;;9.42;100.00
49104;BME280;34915;52.926;11.116;2023-05-25T01:44:34;102345.13;;;9.44;100.00
49104;BME280;34915;52.926;11.116;2023-05-25T01:52:53;102346.84;;;9.45;100.00
49104;BME280;34915;52.926;11.116;2023-05-25T01:55:21;102341.69;;;9.42;100.00
49104;BME280;34915;52.926;11.116;2023-05-25T01:57:52;102350.53;;;9.41;100.00
49104;BME280;34915;52.926;11.116;2023-05-25T02:00:23;102352.38;;;9.39;100.00
49104;BME280;34915;52.926;11.116;2023-05-25T02:02:51;102354.50;;;9.31;100.00
49104;BME280;34915;52.926;11.116;2023-05-25T02:05:18;102345.88;;;9.26;100.00
49104;BME280;34915;52.926;11.116;2023-05-25T02:07:45;102350.19;;;9.29;100.00
49104;BME280;34915;52.926;11.116;2023-05-25T02:10:10;102346.00;;;9.23;100.00
49104;BME280;34915;52.926;11.116;2023-05-25T02:12:36;102347.72;;;9.24;100.00
49104;BME280;34915;52.926;11.116;2023-05-25T02:15:02;102340.56;;;9.26;100.00
49104;BME280;34915;52.926;11.116;2023-05-25T02:17:27;102345.75;;;9.29;100.00
49104;BME280;34915;52.926;11.116;2023-05-25T02:19:54;102337.03;;;9.27;100.00
49104;BME280;34915;52.926;11.116;2023-05-25T02:22:21;102344.75;;;9.32;100.00
49104;BME280;34915;52.926;11.116;2023-05-25T02:24:47;102347.34;;;9.33;100.00
49104;BME280;34915;52.926;11.116;2023-05-25T02:27:13;102340.31;;;9.32;100.00
49104;BME280;34915;52.926;11.116;2023-05-25T02:29:39;102346.44;;;9.34;100.00
49104;BME280;34915;52.926;11.116;2023-05-25T02:32:05;102336.78;;;9.33;100.00
49104;BME280;34915;52.926;11.116;2023-05-25T02:34:31;102344.69;;;9.33;100.00
49104;BME280;34915;52.926;11.116;2023-05-25T02:36:57;102333.56;;;9.25;100.00
49104;BME280;34915;52.926;11.116;2023-05-25T02:39:22;102363.09;;;9.36;100.00
49104;BME280;34915;52.926;11.116;2023-05-25T02:41:52;102363.22;;;9.33;100.00
49104;BME280;34915;52.926;11.116;2023-05-25T02:44:17;102368.25;;;9.39;100.00
49104;BME280;34915;52.926;11.116;2023-05-25T02:46:46;102358.34;;;9.44;100.00
49104;BME280;34915;52.926;11.116;2023-05-25T02:49:12;102352.00;;;9.48;100.00
49104;BME280;34915;52.926;11.116;2023-05-25T02:51:38;102359.03;;;9.49;100.00
49104;BME280;34915;52.926;11.116;2023-05-25T02:54:04;102355.47;;;9.50;100.00
49104;BME280;34915;52.926;11.116;2023-05-25T02:56:32;102360.75;;;9.50;100.00
49104;BME280;34915;52.926;11.116;2023-05-25T02:58:58;102345.00;;;9.47;100.00
49104;BME280;34915;52.926;11.116;2023-05-25T03:01:23;102350.97;;;9.52;100.00
49104;BME280;34915;52.926;11.116;2023-05-25T03:03:49;102352.78;;;9.51;100.00
49104;BME280;34915;52.926;11.116;2023-05-25T03:06:17;102359.81;;;9.51;100.00
49104;BME280;34915;52.926;11.116;2023-05-25T03:08:42;102359.03;;;9.49;100.00
49104;BME280;34915;52.926;11.116;2023-05-25T03:11:08;102350.19;;;9.50;100.00
49104;BME280;34915;52.926;11.116;2023-05-25T03:13:34;102364.19;;;9.52;100.00
49104;BME280;34915;52.926;11.116;2023-05-25T03:16:00;102364.19;;;9.52;100.00
49104;BME280;34915;52.926;11.116;2023-05-25T03:18:26;102369.50;;;9.52;100.00
49104;BME280;34915;52.926;11.116;2023-05-25T03:20:52;102369.63;;;9.49;100.00
49104;BME280;34915;52.926;11.116;2023-05-25T03:23:17;102373.81;;;9.54;100.00
49104;BME280;34915;52.926;11.116;2023-05-25T03:25:43;102378.97;;;9.57;100.00
49104;BME280;34915;52.926;11.116;2023-05-25T03:28:09;102378.84;;;9.60;100.00
49104;BME280;34915;52.926;11.116;2023-05-25T03:30:34;102374.41;;;9.61;100.00
49104;BME280;34915;52.926;11.116;2023-05-25T03:33:00;102375.13;;;9.64;100.00
49104;BME280;34915;52.926;11.116;2023-05-25T03:35:25;102374.28;;;9.64;100.00
49104;BME280;34915;52.926;11.116;2023-05-25T03:37:51;102361.28;;;9.58;100.00
49104;BME280;34915;52.926;11.116;2023-05-25T03:40:17;102362.91;;;9.62;100.00
49104;BME280;34915;52.926;11.116;2023-05-25T03:42:42;102368.72;;;9.70;100.00
49104;BME280;34915;52.926;11.116;2023-05-25T03:45:10;102378.41;;;9.71;100.00
49104;BME280;34915;52.926;11.116;2023-05-25T03:47:36;102375.63;;;9.74;100.00
49104;BME280;34915;52.926;11.116;2023-05-25T03:50:05;102369.59;;;9.70;100.00
49104;BME280;34915;52.926;11.116;2023-05-25T03:52:32;102376.34;;;9.77;100.00
49104;BME280;34915;52.926;11.116;2023-05-25T03:54:58;102378.91;;;9.79;100.00
49104;BME280;34915;52.926;11.116;2023-05-25T03:57:26;102379.06;;;9.76;100.00
49104;BME280;34915;52.926;11.116;2023-05-25T03:59:52;102385.16;;;9.78;100.00
49104;BME280;34915;52.926;11.116;2023-05-25T04:02:18;102389.38;;;9.81;100.00
49104;BME280;34915;52.926;11.116;2023-05-25T04:04:43;102387.69;;;9.81;100.00
49104;BME280;34915;52.926;11.116;2023-05-25T04:07:09;102390.28;;;9.82;100.00
49104;BME280;34915;52.926;11.116;2023-05-25T04:09:35;102382.38;;;9.81;100.00
49104;BME280;34915;52.926;11.116;2023-05-25T04:12:00;102390.97;;;9.85;100.00
49104;BME280;34915;52.926;11.116;2023-05-25T04:14:26;102394.41;;;9.87;100.00
49104;BME280;34915;52.926;11.116;2023-05-25T04:16:52;102389.25;;;9.84;100.00
49104;BME280;34915;52.926;11.116;2023-05-25T04:19:18;102401.44;;;9.88;100.00
49104;BME280;34915;52.926;11.116;2023-05-25T04:21:43;102401.56;;;9.85;100.00
49104;BME280;34915;52.926;11.116;2023-05-25T04:24:09;102404.88;;;9.90;100.00
49104;BME280;34915;52.926;11.116;2023-05-25T04:26:34;102404.78;;;9.93;100.00
49104;BME280;34915;52.926;11.116;2023-05-25T04:29:00;102401.97;;;9.98;100.00
49104;BME280;34915;52.926;11.116;2023-05-25T04:31:27;102399.38;;;9.96;100.00
49104;BME280;34915;52.926;11.116;2023-05-25T04:33:52;102414.75;;;10.08;100.00
49104;BME280;34915;52.926;11.116;2023-05-25T04:36:20;102386.94;;;9.98;100.00
49104;BME280;34915;52.926;11.116;2023-05-25T04:38:47;102409.31;;;10.11;100.00
49104;BME280;34915;52.926;11.116;2023-05-25T04:41:13;102411.03;;;10.12;100.00
49104;BME280;34915;52.926;11.116;2023-05-25T04:43:39;102409.31;;;10.11;100.00
49104;BME280;34915;52.926;11.116;2023-05-25T04:46:04;102409.19;;;10.14;100.00
49104;BME280;34915;52.926;11.116;2023-05-25T04:48:32;102400.69;;;10.06;100.00
49104;BME280;34915;52.926;11.116;2023-05-25T04:50:59;102388.66;;;9.99;100.00
49104;BME280;34915;52.926;11.116;2023-05-25T04:53:31;102402.44;;;10.07;100.00
49104;BME280;34915;52.926;11.116;2023-05-25T04:55:59;102419.53;;;10.20;100.00
49104;BME280;34915;52.926;11.116;2023-05-25T04:58:25;102401.19;;;10.16;100.00
49104;BME280;34915;52.926;11.116;2023-05-25T05:00:54;102413.84;;;10.29;100.00
49104;BME280;34915;52.926;11.116;2023-05-25T05:03:20;102420.19;;;10.25;100.00
49104;BME280;34915;52.926;11.116;2023-05-25T05:05:45;102415.84;;;10.24;100.00
49104;BME280;34915;52.926;11.116;2023-05-25T05:08:11;102418.88;;;10.35;100.00
49104;BME280;34915;52.926;11.116;2023-05-25T05:10:39;102418.47;;;10.44;100.00
49104;BME280;34915;52.926;11.116;2023-05-25T05:13:04;102422.84;;;10.45;100.00
49104;BME280;34915;52.926;11.116;2023-05-25T05:15:30;102429.88;;;10.46;100.00
49104;BME280;34915;52.926;11.116;2023-05-25T05:17:57;102439.66;;;10.44;100.00
49104;BME280;34915;52.926;11.116;2023-05-25T05:20:23;102432.78;;;10.40;100.00
49104;BME280;34915;52.926;11.116;2023-05-25T05:22:49;102432.66;;;10.43;100.00
49104;BME280;34915;52.926;11.116;2023-05-25T05:25:14;102431.91;;;10.39;100.00
49104;BME280;34915;52.926;11.116;2023-05-25T05:27:40;102443.38;;;10.40;100.00
49104;BME280;34915;52.926;11.116;2023-05-25T05:30:06;102457.56;;;10.39;100.00
49104;BME280;34915;52.926;11.116;2023-05-25T05:32:32;102455.81;;;10.38;100.00
49104;BME280;34915;52.926;11.116;2023-05-25T05:34:57;102455.94;;;10.35;100.00
49104;BME280;34915;52.926;11.116;2023-05-25T05:37:23;102461.13;;;10.38;100.00
49104;BME280;34915;52.926;11.116;2023-05-25T05:39:48;102464.72;;;10.37;100.00
49104;BME280;34915;52.926;11.116;2023-05-25T05:42:16;102461.94;;;10.40;100.00
49104;BME280;34915;52.926;11.116;2023-05-25T05:44:42;102458.25;;;10.42;100.00
49104;BME280;34915;52.926;11.116;2023-05-25T05:47:07;102452.38;;;10.36;100.00
49104;BME280;34915;52.926;11.116;2023-05-25T05:49:33;102463.75;;;10.38;100.00
49104;BME280;34915;52.926;11.116;2023-05-25T05:51:59;102468.00;;;10.42;100.00
49104;BME280;34915;52.926;11.116;2023-05-25T05:54:24;102473.19;;;10.45;100.00
49104;BME280;34915;52.926;11.116;2023-05-25T05:56:52;102463.56;;;10.42;100.00
49104;BME280;34915;52.926;11.116;2023-05-25T05:59:21;102479.94;;;10.52;100.00
49104;BME280;34915;52.926;11.116;2023-05-25T06:01:46;102478.22;;;10.51;100.00
49104;BME280;34915;52.926;11.116;2023-05-25T06:04:12;102488.03;;;10.49;100.00
49104;BME280;34915;52.926;11.116;2023-05-25T06:06:39;102485.38;;;10.49;100.00
49104;BME280;34915;52.926;11.116;2023-05-25T06:09:06;102481.78;;;10.50;100.00
49104;BME280;34915;52.926;11.116;2023-05-25T06:11:36;102497.53;;;10.53;100.00
49104;BME280;34915;52.926;11.116;2023-05-25T06:14:04;102496.09;;;10.46;100.00
49104;BME280;34915;52.926;11.116;2023-05-25T06:16:30;102493.25;;;10.50;100.00
49104;BME280;34915;52.926;11.116;2023-05-25T06:18:58;102480.34;;;10.43;100.00
49104;BME280;34915;52.926;11.116;2023-05-25T06:21:24;102494.25;;;10.48;100.00
49104;BME280;34915;52.926;11.116;2023-05-25T06:23:50;102495.28;;;10.44;100.00
49104;BME280;34915;52.926;11.116;2023-05-25T06:26:16;102505.75;;;10.47;100.00
49104;BME280;34915;52.926;11.116;2023-05-25T06:28:41;102510.28;;;10.45;100.00
49104;BME280;34915;52.926;11.116;2023-05-25T06:31:07;102512.00;;;10.46;100.00
49104;BME280;34915;52.926;11.116;2023-05-25T06:33:32;102508.53;;;10.44;100.00
49104;BME280;34915;52.926;11.116;2023-05-25T06:35:58;102512.84;;;10.46;100.00
49104;BME280;34915;52.926;11.116;2023-05-25T06:38:27;102517.31;;;10.46;100.00
49104;BME280;34915;52.926;11.116;2023-05-25T06:40:53;102495.97;;;10.49;100.00
49104;BME280;34915;52.926;11.116;2023-05-25T06:43:19;102515.03;;;10.57;100.00
49104;BME280;34915;52.926;11.116;2023-05-25T06:45:45;102517.56;;;10.60;100.00
49104;BME280;34915;52.926;11.116;2023-05-25T06:48:11;102514.00;;;10.61;100.00
49104;BME280;34915;52.926;11.116;2023-05-25T06:50:36;102512.94;;;10.65;100.00
49104;BME280;34915;52.926;11.116;2023-05-25T06:53:03;102489.41;;;10.57;100.00
49104;BME280;34915;52.926;11.116;2023-05-25T06:55:28;102503.66;;;10.75;100.00
49104;BME280;34915;52.926;11.116;2023-05-25T06:57:54;102501.81;;;10.77;100.00
49104;BME280;34915;52.926;11.116;2023-05-25T07:00:20;102487.88;;;10.72;100.00
49104;BME280;34915;52.926;11.116;2023-05-25T07:02:46;102506.50;;;10.90;100.00
49104;BME280;34915;52.926;11.116;2023-05-25T07:05:11;102512.00;;;10.85;100.00
49104;BME280;34915;52.926;11.116;2023-05-25T07:07:37;102512.84;;;10.86;100.00
49104;BME280;34915;52.926;11.116;2023-05-25T07:10:03;102510.13;;;10.87;100.00
49104;BME280;34915;52.926;11.116;2023-05-25T07:12:29;102511.75;;;10.91;100.00
49104;BME280;34915;52.926;11.116;2023-05-25T07:14:56;102513.19;;;10.98;100.00
49104;BME280;34915;52.926;11.116;2023-05-25T07:17:22;102516.50;;;11.03;100.00
49104;BME280;34915;52.926;11.116;2023-05-25T07:19:47;102516.22;;;11.09;100.00
49104;BME280;34915;52.926;11.116;2023-05-25T07:22:14;102509.78;;;11.15;100.00
49104;BME280;34915;52.926;11.116;2023-05-25T07:24:44;102521.09;;;11.18;100.00
49104;BME280;34915;52.926;11.116;2023-05-25T07:27:10;102522.97;;;11.16;100.00
49104;BME280;34915;52.926;11.116;2023-05-25T07:29:37;102521.72;;;11.25;100.00
49104;BME280;34915;52.926;11.116;2023-05-25T07:32:03;102529.88;;;11.20;100.00
49104;BME280;34915;52.926;11.116;2023-05-25T07:34:28;102530.59;;;11.24;100.00
49104;BME280;34915;52.926;11.116;2023-05-25T07:36:54;102532.25;;;11.26;100.00
49104;BME280;34915;52.926;11.116;2023-05-25T07:39:20;102529.31;;;11.32;100.00
49104;BME280;34915;52.926;11.116;2023-05-25T07:41:45;102525.59;;;11.36;100.00
49104;BME280;34915;52.926;11.116;2023-05-25T07:44:11;102536.06;;;11.39;100.00
49104;BME280;34915;52.926;11.116;2023-05-25T07:46:36;102535.94;;;11.42;100.00
49104;BME280;34915;52.926;11.116;2023-05-25T07:49:02;102535.53;;;11.51;100.00
49104;BME280;34915;52.926;11.116;2023-05-25T07:51:29;102519.75;;;11.48;100.00
49104;BME280;34915;52.926;11.116;2023-05-25T07:53:57;102531.97;;;11.52;100.00
49104;BME280;34915;52.926;11.116;2023-05-25T07:56:23;102539.13;;;11.50;100.00
49104;BME280;34915;52.926;11.116;2023-05-25T07:58:49;102543.50;;;11.51;100.00
49104;BME280;34915;52.926;11.116;2023-05-25T08:01:14;102551.47;;;11.51;100.00
49104;BME280;34915;52.926;11.116;2023-05-25T08:03:43;102544.28;;;11.53;100.00
49104;BME280;34915;52.926;11.116;2023-05-25T08:06:08;102543.28;;;11.55;100.00
49104;BME280;34915;52.926;11.116;2023-05-25T08:08:34;102540.41;;;11.60;100.00
49104;BME280;34915;52.926;11.116;2023-05-25T08:11:01;102545.88;;;11.57;100.00
49104;BME280;34915;52.926;11.116;2023-05-25T08:13:26;102547.88;;;11.52;100.00
49104;BME280;34915;52.926;11.116;2023-05-25T08:15:52;102538.25;;;11.49;100.00
49104;BME280;34915;52.926;11.116;2023-05-25T08:18:17;102545.88;;;11.57;100.00
49104;BME280;34915;52.926;11.116;2023-05-25T08:20:45;102551.03;;;11.60;100.00
49104;BME280;34915;52.926;11.116;2023-05-25T08:23:11;102554.31;;;11.65;100.00
49104;BME280;34915;52.926;11.116;2023-05-25T08:25:37;102546.19;;;11.69;100.00
49104;BME280;34915;52.926;11.116;2023-05-25T08:28:02;102545.81;;;11.77;100.00
49104;BME280;34915;52.926;11.116;2023-05-25T08:30:28;102552.59;;;11.82;100.00
49104;BME280;34915;52.926;11.116;2023-05-25T08:32:54;102558.66;;;11.85;100.00
49104;BME280;34915;52.926;11.116;2023-05-25T08:35:23;102553.78;;;11.77;100.00
49104;BME280;34915;52.926;11.116;2023-05-25T08:37:49;102539.97;;;11.69;100.00
49104;BME280;34915;52.926;11.116;2023-05-25T08:40:15;102551.75;;;11.81;100.00
49104;BME280;34915;52.926;11.116;2023-05-25T08:42:44;102551.31;;;11.90;100.00
49104;BME280;34915;52.926;11.116;2023-05-25T08:45:11;102556.47;;;11.93;100.00
49104;BME280;34915;52.926;11.116;2023-05-25T08:47:41;102553.50;;;11.82;100.00
49104;BME280;34915;52.926;11.116;2023-05-25T08:50:08;102552.69;;;11.80;100.00
49104;BME280;34915;52.926;11.116;2023-05-25T08:52:35;102555.19;;;11.83;100.00
49104;BME280;34915;52.926;11.116;2023-05-25T08:55:04;102558.38;;;11.91;100.00
49104;BME280;34915;52.926;11.116;2023-05-25T09:00:22;102563.00;;;12.05;100.00
49104;BME280;34915;52.926;11.116;2023-05-25T09:02:55;102569.84;;;12.10;100.00
49104;BME280;34915;52.926;11.116;2023-05-25T09:05:22;102568.59;;;12.17;100.00
49104;BME280;34915;52.926;11.116;2023-05-25T09:07:51;102559.91;;;12.14;100.00
49104;BME280;34915;52.926;11.116;2023-05-25T09:10:21;102582.22;;;12.28;100.00
49104;BME280;34915;52.926;11.116;2023-05-25T09:12:48;102581.59;;;12.23;100.00
49104;BME280;34915;52.926;11.116;2023-05-25T09:15:15;102567.81;;;12.15;100.00
49104;BME280;34915;52.926;11.116;2023-05-25T09:17:41;102585.88;;;12.26;100.00
49104;BME280;34915;52.926;11.116;2023-05-25T09:20:09;102590.03;;;12.31;100.00
49104;BME280;34915;52.926;11.116;2023-05-25T09:22:35;102578.41;;;12.33;100.00
49104;BME280;34915;52.926;11.116;2023-05-25T09:25:03;102588.28;;;12.48;100.00
49104;BME280;34915;52.926;11.116;2023-05-25T09:27:34;102573.19;;;12.49;100.00
49104;BME280;34915;52.926;11.116;2023-05-25T09:30:00;102578.34;;;12.52;100.00
49104;BME280;34915;52.926;11.116;2023-05-25T09:32:26;102558.19;;;12.48;100.00
49104;BME280;34915;52.926;11.116;2023-05-25T09:34:52;102572.13;;;12.70;100.00
49104;BME280;34915;52.926;11.116;2023-05-25T09:37:20;102575.91;;;12.82;100.00
49104;BME280;34915;52.926;11.116;2023-05-25T09:39:46;102567.63;;;12.88;100.00
49104;BME280;34915;52.926;11.116;2023-05-25T09:42:15;102582.50;;;13.09;100.00
49104;BME280;34915;52.926;11.116;2023-05-25T09:44:41;102563.41;;;13.01;99.72
49104;BME280;34915;52.926;11.116;2023-05-25T09:47:09;102578.72;;;13.13;99.74
49104;BME280;34915;52.926;11.116;2023-05-25T09:49:35;102581.50;;;13.27;99.75
49104;BME280;34915;52.926;11.116;2023-05-25T09:52:01;102562.13;;;13.25;98.02
49104;BME280;34915;52.926;11.116;2023-05-25T09:54:26;102577.44;;;13.37;97.17
49104;BME280;34915;52.926;11.116;2023-05-25T09:56:53;102569.25;;;13.57;99.19
49104;BME280;34915;52.926;11.116;2023-05-25T09:59:18;102566.69;;;13.71;99.12
49104;BME280;34915;52.926;11.116;2023-05-25T10:01:49;102570.47;;;13.82;94.74
49104;BME280;34915;52.926;11.116;2023-05-25T10:04:15;102567.38;;;13.89;92.68
49104;BME280;34915;52.926;11.116;2023-05-25T10:06:41;102577.03;;;14.07;91.79
49104;BME280;34915;52.926;11.116;2023-05-25T10:09:07;102589.75;;;14.02;91.78
49104;BME280;34915;52.926;11.116;2023-05-25T10:11:37;102582.69;;;14.01;93.47
49104;BME280;34915;52.926;11.116;2023-05-25T10:14:06;102587.03;;;14.19;91.86
49104;BME280;34915;52.926;11.116;2023-05-25T10:16:33;102587.38;;;14.44;94.69
49104;BME280;34915;52.926;11.116;2023-05-25T10:21:32;102600.97;;;14.24;89.58
49104;BME280;34915;52.926;11.116;2023-05-25T10:24:13;102582.75;;;14.17;91.71
49104;BME280;34915;52.926;11.116;2023-05-25T10:26:48;102588.56;;;14.23;92.65
49104;BME280;34915;52.926;11.116;2023-05-25T10:29:17;102595.31;;;14.15;90.39
49104;BME280;34915;52.926;11.116;2023-05-25T10:31:44;102589.75;;;14.02;90.09
49104;BME280;34915;52.926;11.116;2023-05-25T10:34:11;102589.91;;;13.99;89.36
49104;BME280;34915;52.926;11.116;2023-05-25T10:36:39;102596.81;;;14.03;90.37
49104;BME280;34915;52.926;11.116;2023-05-25T10:39:06;102589.28;;;14.27;91.17
49104;BME280;34915;52.926;11.116;2023-05-25T10:41:32;102597.78;;;14.77;91.38
49104;BME280;34915;52.926;11.116;2023-05-25T10:43:59;102589.44;;;14.97;87.98
49104;BME280;34915;52.926;11.116;2023-05-25T10:46:24;102591.72;;;14.89;86.62
49104;BME280;34915;52.926;11.116;2023-05-25T10:48:50;102604.31;;;14.87;86.16
49104;BME280;34915;52.926;11.116;2023-05-25T10:51:20;102585.56;;;14.74;87.21
49104;BME280;34915;52.926;11.116;2023-05-25T10:53:57;102593.00;;;14.69;87.65
49104;BME280;34915;52.926;11.116;2023-05-25T10:56:23;102584.22;;;14.67;88.22
49104;BME280;34915;52.926;11.116;2023-05-25T10:58:51;102580.06;;;14.77;88.91
49104;BME280;34915;52.926;11.116;2023-05-25T11:01:17;102577.81;;;14.84;86.57
49104;BME280;34915;52.926;11.116;2023-05-25T11:06:15;102576.81;;;15.01;82.96
49104;BME280;34915;52.926;11.116;2023-05-25T11:11:16;102573.56;;;15.25;85.00
49104;BME280;34915;52.926;11.116;2023-05-25T11:13:49;102564.38;;;15.29;82.86
49104;BME280;34915;52.926;11.116;2023-05-25T11:18:56;102565.72;;;15.77;83.16
49104;BME280;34915;52.926;11.116;2023-05-25T11:21:43;102563.00;;;16.05;80.79
49104;BME280;34915;52.926;11.116;2023-05-25T11:24:11;102557.47;;;16.08;78.59
49104;BME280;34915;52.926;11.116;2023-05-25T11:26:51;102564.00;;;15.90;78.51
49104;BME280;34915;52.926;11.116;2023-05-25T11:29:19;102550.91;;;15.86;80.29
49104;BME280;34915;52.926;11.116;2023-05-25T11:31:51;102546.56;;;16.11;80.74
49104;BME280;34915;52.926;11.116;2023-05-25T11:34:18;102537.94;;;16.34;78.60
49104;BME280;34915;52.926;11.116;2023-05-25T11:36:46;102535.91;;;16.76;80.40
49104;BME280;34915;52.926;11.116;2023-05-25T11:39:13;102534.41;;;16.84;77.37
49104;BME280;34915;52.926;11.116;2023-05-25T11:41:39;102542.53;;;16.71;74.00
49104;BME280;34915;52.926;11.116;2023-05-25T11:44:11;102531.34;;;16.52;76.37
49104;BME280;34915;52.926;11.116;2023-05-25T11:46:40;102539.44;;;16.38;76.60
49104;BME280;34915;52.926;11.116;2023-05-25T11:49:07;102533.16;;;16.25;77.62
49104;BME280;34915;52.926;11.116;2023-05-25T11:51:34;102530.13;;;16.17;77.98
49104;BME280;34915;52.926;11.116;2023-05-25T11:54:03;102529.13;;;16.32;80.39
49104;BME280;34915;52.926;11.116;2023-05-25T11:56:31;102523.38;;;16.38;77.41
49104;BME280;34915;52.926;11.116;2023-05-25T11:58:57;102525.75;;;16.42;76.56
49104;BME280;34915;52.926;11.116;2023-05-25T12:01:23;102524.69;;;16.45;76.61
49104;BME280;34915;52.926;11.116;2023-05-25T12:03:51;102519.34;;;16.45;77.83
49104;BME280;34915;52.926;11.116;2023-05-25T12:08:49;102527.53;;;16.56;73.44
49104;BME280;34915;52.926;11.116;2023-05-25T12:11:15;102520.66;;;16.52;74.62
49104;BME280;34915;52.926;11.116;2023-05-25T12:13:41;102527.31;;;16.59;72.32
49104;BME280;34915;52.926;11.116;2023-05-25T12:16:06;102512.72;;;16.50;72.22
49104;BME280;34915;52.926;11.116;2023-05-25T12:18:32;102514.88;;;16.58;75.42
49104;BME280;34915;52.926;11.116;2023-05-25T12:20:58;102513.94;;;16.59;74.37
49104;BME280;34915;52.926;11.116;2023-05-25T12:23:24;102513.31;;;16.68;74.37
49104;BME280;34915;52.926;11.116;2023-05-25T12:26:08;102510.00;;;16.77;80.38
49104;BME280;34915;52.926;11.116;2023-05-25T12:28:34;102507.63;;;16.72;76.52
49104;BME280;34915;52.926;11.116;2023-05-25T12:31:18;102517.47;;;16.72;79.02
49104;BME280;34915;52.926;11.116;2023-05-25T12:33:45;102507.84;;;16.69;77.82
49104;BME280;34915;52.926;11.116;2023-05-25T12:36:10;102511.91;;;16.75;76.64
49104;BME280;34915;52.926;11.116;2023-05-25T12:38:37;102501.00;;;16.77;74.94
49104;BME280;34915;52.926;11.116;2023-05-25T12:41:06;102505.84;;;16.85;73.78
49104;BME280;34915;52.926;11.116;2023-05-25T12:43:37;102498.75;;;16.96;74.32
49104;BME280;34915;52.926;11.116;2023-05-25T12:46:02;102496.94;;;17.09;71.11
49104;BME280;34915;52.926;11.116;2023-05-25T12:48:30;102494.03;;;17.12;72.82
49104;BME280;34915;52.926;11.116;2023-05-25T12:50:57;102493.75;;;17.29;75.77
49104;BME280;34915;52.926;11.116;2023-05-25T12:53:22;102489.47;;;17.39;72.86
49104;BME280;34915;52.926;11.116;2023-05-25T12:55:48;102493.09;;;17.38;74.50
49104;BME280;34915;52.926;11.116;2023-05-25T12:58:26;102474.50;;;17.24;68.43
49104;BME280;34915;52.926;11.116;2023-05-25T13:00:52;102484.78;;;17.30;66.83